Share

Aspermont, TX

9:23 AM CDT on April 23, 2014 (GMT -0500)
WT_Meso Aspermont 3NE (MASST2) Elev 1740 ft | 33.17 °N, 100.20 °W | Change Station

Current weather conditions updated 28 minutes ago

Scattered Clouds
Scattered Clouds
70 °F
Feels Like 70 °F
N
12
Wind Variable Wind from SSE
Gusts 16.0 mph
Sunrise 7:01 AM
Sunset 8:17 PM
Moon Waning Crescent

Today is forecast to be Warmer than yesterday.

Pressure 29.91 in
Visibility 10.0 miles
Clouds Scattered Clouds 12000 ft
Dew Point 56 °F
Humidity 61%
Rainfall -999.00 in
Snow Depth Not available.
UV 2 out of 16
Pollen 8.80 out of 12
Air Quality Not available.
Flu Activity Local Activity
METAR KSWW 231415Z AUTO 16017G22KT 10SM SCT120 21/14 A2991 RMK AO2 T02100144

More Conditions Fewer Conditions

Pressure 29.91 in
Visibility 10.0 miles
Clouds Scattered Clouds 12000 ft
Dew Point 56 °F
Humidity 61%
Rainfall -999.00 in
Snow Depth Not available.
UV 2 out of 16
Pollen 8.80 out of 12
Air Quality Not available.
Flu Activity Local Activity
METAR KSWW 231415Z AUTO 16017G22KT 10SM SCT120 21/14 A2991 RMK AO2 T02100144

More Conditions Fewer Conditions

10-Day Weather Forecast

Almanac

Astronomy

Apr. 23, 2014 Rise Set
Actual Time 7:01 AM CDT 8:17 PM CDT
Civil Twilight 6:35 AM CDT 8:43 PM CDT
Nautical Twilight 6:05 AM CDT 9:14 PM CDT
Astronomical Twilight 5:33 AM CDT 9:46 PM CDT
Moon 3:15 AM CDT 2:45 PM CDT
Length of Visible Light 14h 07m
Length of Day
13h 15m
Tomorrow will be 1m 51s longer.
Waning Crescent, 36% of the Moon is Illuminated
Today
Waning Crescent
Apr 29
New
May 6
First Quarter
May 14
Full
May 21
Last Quarter

Today's Extremes

State Highs State Lows

Community

  • spring flowers
    spring flowers
  • Earth Day Spectrum Ove' Blue
    Earth Day Spectrum Ove' Blue
  • BARN B&W
    BARN B&W
  • April Sunset
    April Sunset
  • Waiting..
    Waiting..

WunderPhotos

Upload Photos

1,704,296 photos uploaded!

Nearby

Snow Depth

Station Depth Elevation
No new snow has been reported.

Coastal Water Temperatures

Place Temperature
No Stations Reporting

Earthquake Activity

City Distance Mag. Time & Date
No recent earthquake activity has been reported nearby.
Minimum magnitude displayed is 2.5.

Nearby Weather Stations

Station Location Temp. Heat Index Dew Point Humidity Wind Precip. Elev Updated Type
WT_Meso Aspermont 3NE, Aspermont, TX 70 °F - 56 °F 61% SSE  at  12 mph 0.00 in / hr 1740 ft 8:55 AM CDT MADIS
WT_Meso Jayton 1S, Girard, TX 62 °F - 49 °F 64% SSE  at  9 mph 0.00 in / hr 2009 ft 5:55 AM CDT MADIS
Hamlin, TX 74.5 °F 77 °F 61 °F 63% SSW  at  9.9 mph - / hr 1834 ft 9:14 AM CDT Normal

Show More Stations Show Fewer Stations

What do you think?

We're not finished. Please let us know what you like, what you don't like, and what you are still missing.